createdAt,value
2022-11-09T07:31:11.142Z,-7.79
2022-11-09T07:36:20.715Z,-7.86
2022-11-09T07:41:25.170Z,-7.77
2022-11-09T07:46:30.556Z,-8.34
2022-11-09T07:51:35.839Z,-7.51
2022-11-09T07:56:39.692Z,-8.24
2022-11-09T08:01:44.827Z,-7.35
2022-11-09T08:06:48.559Z,-7.51
2022-11-09T08:11:52.134Z,-7.47
2022-11-09T08:16:57.440Z,-7.58
2022-11-09T08:22:01.317Z,-7.30
2022-11-09T08:27:04.994Z,-7.52
2022-11-09T08:32:10.022Z,-8.56
2022-11-09T08:37:13.851Z,-7.47
2022-11-09T08:42:17.576Z,-8.09
2022-11-09T08:47:22.652Z,-7.26
2022-11-09T08:52:26.240Z,-7.41
2022-11-09T08:57:30.380Z,-7.50
2022-11-09T09:02:35.500Z,-8.88
2022-11-09T09:07:39.228Z,-7.38
2022-11-09T09:12:42.834Z,-7.44
2022-11-09T09:17:47.912Z,-7.72
2022-11-09T09:22:59.148Z,-6.92
2022-11-09T09:28:02.801Z,-6.79
2022-11-09T09:33:08.776Z,-6.57
2022-11-09T09:38:12.498Z,-6.52
2022-11-09T09:43:24.217Z,-7.36
2022-11-09T09:48:37.946Z,-7.37
2022-11-09T09:53:46.374Z,-6.16
2022-11-09T09:58:56.956Z,-6.39
2022-11-09T10:04:02.131Z,-9.22
2022-11-09T10:09:19.595Z,-6.36
2022-11-09T10:14:52.768Z,-8.35
2022-11-09T10:27:31.055Z,-6.18
2022-11-09T10:32:52.833Z,-6.09
2022-11-09T10:38:02.617Z,-7.66
2022-11-09T10:43:13.404Z,-6.34
2022-11-09T10:48:53.907Z,-8.67
2022-11-09T10:54:20.158Z,-5.51
2022-11-09T10:59:50.851Z,-5.17
2022-11-09T11:05:42.660Z,-4.80
2022-11-09T11:11:38.331Z,-4.62
2022-11-09T11:17:03.601Z,-4.73
2022-11-09T11:22:27.511Z,-3.91
2022-11-09T11:27:55.386Z,-3.63
2022-11-09T11:33:22.778Z,-3.38
2022-11-09T11:38:57.496Z,-3.79
2022-11-09T11:44:40.631Z,-3.57
2022-11-09T11:50:19.140Z,-3.56
2022-11-09T11:55:53.395Z,-3.23
2022-11-09T12:01:39.840Z,-3.00
2022-11-09T12:07:17.688Z,-2.88
2022-11-09T12:12:51.259Z,-3.09
2022-11-09T12:18:28.831Z,-3.08
2022-11-09T12:24:14.098Z,-2.86
2022-11-09T12:29:40.924Z,-2.73
2022-11-09T12:35:27.548Z,-3.78
2022-11-09T12:40:56.097Z,-3.78
2022-11-09T12:46:21.347Z,-2.84
2022-11-09T12:51:43.841Z,-3.24
2022-11-09T12:57:38.539Z,-4.47
2022-11-09T13:03:32.914Z,-3.54
2022-11-09T13:09:02.486Z,-3.02
2022-11-09T13:14:39.381Z,-5.14
2022-11-09T13:20:55.433Z,-4.61
2022-11-09T13:26:25.064Z,-3.28
2022-11-09T13:32:27.298Z,-4.27
2022-11-09T13:37:59.746Z,-6.02
2022-11-09T13:43:26.149Z,-5.10
2022-11-09T13:48:52.938Z,-4.45
2022-11-09T13:54:50.180Z,-7.99
2022-11-09T14:00:19.691Z,-4.05
2022-11-09T14:05:42.330Z,-5.78
2022-11-09T14:11:25.708Z,-4.27
2022-11-09T14:16:51.648Z,-4.43
2022-11-09T14:22:17.220Z,-4.62
2022-11-09T14:27:47.796Z,-4.72
2022-11-09T14:33:22.682Z,-4.90
2022-11-09T14:38:48.830Z,-5.04
2022-11-09T14:44:18.468Z,-5.29
2022-11-09T14:49:41.431Z,-5.81
2022-11-09T14:55:04.743Z,-5.41
2022-11-09T15:00:33.201Z,-5.49
2022-11-09T15:06:05.946Z,-5.52
2022-11-09T15:11:33.080Z,-5.84
2022-11-09T15:17:13.600Z,-6.64
2022-11-09T15:22:49.520Z,-5.98
2022-11-09T15:28:22.318Z,-6.21
2022-11-09T15:33:52.278Z,-6.16
2022-11-09T15:39:18.094Z,-6.19
2022-11-09T15:44:40.371Z,-6.31
2022-11-09T15:50:16.120Z,-6.40
2022-11-09T15:55:41.942Z,-6.84
2022-11-09T16:01:06.634Z,-7.09
2022-11-09T16:06:31.083Z,-6.80
2022-11-09T16:12:05.114Z,-6.58
2022-11-09T16:17:28.593Z,-7.33
2022-11-09T16:34:37.546Z,-6.63
2022-11-09T16:40:00.621Z,-6.67
2022-11-09T16:45:25.903Z,-6.71
2022-11-09T16:50:53.611Z,-6.80
2022-11-09T16:56:17.158Z,-6.84
2022-11-09T17:01:39.562Z,-6.88
2022-11-09T17:07:03.090Z,-7.20
2022-11-09T17:12:25.329Z,-6.91
2022-11-09T17:17:50.122Z,-6.84
2022-11-09T17:23:18.842Z,-7.62
2022-11-09T17:28:43.316Z,-6.85
2022-11-09T17:34:05.742Z,-6.81
2022-11-09T17:39:38.634Z,-6.81
2022-11-09T17:45:01.101Z,-7.02
2022-11-09T17:50:29.632Z,-6.63
2022-11-09T17:56:42.334Z,-6.49
2022-11-09T18:02:31.574Z,-7.19
2022-11-09T18:08:21.231Z,-6.40
2022-11-09T18:13:49.432Z,-6.77
2022-11-09T18:25:38.282Z,-6.33
2022-11-09T18:31:02.372Z,-6.49
2022-11-09T18:36:47.734Z,-5.98
2022-11-09T18:48:18.722Z,-5.94
2022-11-09T18:53:46.710Z,-5.93
2022-11-09T18:59:11.545Z,-5.91
2022-11-09T19:04:49.331Z,-5.95
2022-11-09T19:10:13.101Z,-6.01
2022-11-09T19:15:40.686Z,-6.31
2022-11-09T19:21:03.647Z,-6.74
2022-11-09T19:26:30.926Z,-6.18
2022-11-09T19:31:54.930Z,-6.33
2022-11-09T19:37:17.437Z,-8.55
2022-11-09T19:42:41.888Z,-6.94
2022-11-09T19:48:09.516Z,-7.20
2022-11-09T19:53:39.510Z,-6.66
2022-11-09T19:59:07.048Z,-6.73
2022-11-09T20:04:29.759Z,-7.26
2022-11-09T20:09:55.192Z,-6.91
2022-11-09T20:15:22.407Z,-7.76
2022-11-09T20:20:45.498Z,-7.03
2022-11-09T20:26:13.560Z,-7.12
2022-11-09T20:31:40.352Z,-7.15
2022-11-09T20:37:05.996Z,-8.61
2022-11-09T20:42:28.735Z,-7.23
2022-11-09T20:48:10.515Z,-7.81
2022-11-09T20:53:37.382Z,-7.50
2022-11-09T20:59:00.313Z,-7.26
2022-11-09T21:04:24.810Z,-8.08
2022-11-09T21:09:50.628Z,-7.32
2022-11-09T21:15:15.577Z,-7.30
2022-11-09T21:20:41.730Z,-7.35
2022-11-09T21:26:21.478Z,-7.32
2022-11-09T21:31:44.597Z,-8.32
2022-11-09T21:37:08.453Z,-7.81
2022-11-09T21:42:30.913Z,-7.32
2022-11-09T21:47:55.704Z,-7.76
2022-11-09T21:53:19.690Z,-7.34
2022-11-09T21:58:41.877Z,-8.33
2022-11-09T22:04:04.074Z,-7.81
2022-11-09T22:09:35.722Z,-7.55
2022-11-09T22:15:15.530Z,-10.10
2022-11-09T22:20:55.772Z,-7.26
2022-11-09T22:26:32.511Z,-10.32
2022-11-09T22:31:55.009Z,-7.08
2022-11-09T22:37:17.639Z,-7.11
